sensor_id;sensor_type;location;lat;lon;timestamp;temperature;humidity
50067;DHT22;35952;52.524;13.340;2023-12-29T00:02:21;8.70;99.90
50067;DHT22;35952;52.524;13.340;2023-12-29T00:04:46;8.70;99.90
50067;DHT22;35952;52.524;13.340;2023-12-29T00:07:12;8.70;99.90
50067;DHT22;35952;52.524;13.340;2023-12-29T00:09:38;8.80;99.90
50067;DHT22;35952;52.524;13.340;2023-12-29T00:12:06;8.80;99.90
50067;DHT22;35952;52.524;13.340;2023-12-29T00:14:33;8.70;99.90
50067;DHT22;35952;52.524;13.340;2023-12-29T00:16:58;8.80;99.90
50067;DHT22;35952;52.524;13.340;2023-12-29T00:19:25;8.70;99.90
50067;DHT22;35952;52.524;13.340;2023-12-29T00:21:50;8.70;99.90
50067;DHT22;35952;52.524;13.340;2023-12-29T00:24:16;8.60;99.90
50067;DHT22;35952;52.524;13.340;2023-12-29T00:26:42;8.60;99.90
50067;DHT22;35952;52.524;13.340;2023-12-29T00:29:07;8.60;99.90
50067;DHT22;35952;52.524;13.340;2023-12-29T00:31:33;8.70;99.90
50067;DHT22;35952;52.524;13.340;2023-12-29T00:33:59;8.80;99.90
50067;DHT22;35952;52.524;13.340;2023-12-29T00:36:24;8.70;99.90
50067;DHT22;35952;52.524;13.340;2023-12-29T00:38:50;8.80;99.90
50067;DHT22;35952;52.524;13.340;2023-12-29T00:41:15;8.90;99.90
50067;DHT22;35952;52.524;13.340;2023-12-29T00:43:41;8.80;99.90
50067;DHT22;35952;52.524;13.340;2023-12-29T00:46:07;8.80;99.90
50067;DHT22;35952;52.524;13.340;2023-12-29T00:48:35;8.80;99.90
50067;DHT22;35952;52.524;13.340;2023-12-29T00:51:01;9.00;99.90
50067;DHT22;35952;52.524;13.340;2023-12-29T00:53:28;8.90;99.90
50067;DHT22;35952;52.524;13.340;2023-12-29T00:55:54;8.90;99.90
50067;DHT22;35952;52.524;13.340;2023-12-29T00:58:20;8.90;99.90
50067;DHT22;35952;52.524;13.340;2023-12-29T01:00:45;8.70;99.90
50067;DHT22;35952;52.524;13.340;2023-12-29T01:03:11;8.80;99.90
50067;DHT22;35952;52.524;13.340;2023-12-29T01:05:36;8.90;99.90
50067;DHT22;35952;52.524;13.340;2023-12-29T01:08:02;8.90;99.90
50067;DHT22;35952;52.524;13.340;2023-12-29T01:10:27;8.90;99.90
50067;DHT22;35952;52.524;13.340;2023-12-29T01:12:53;8.80;99.90
50067;DHT22;35952;52.524;13.340;2023-12-29T01:15:18;8.80;99.90
50067;DHT22;35952;52.524;13.340;2023-12-29T01:17:44;8.80;99.90
50067;DHT22;35952;52.524;13.340;2023-12-29T01:20:09;8.90;99.90
50067;DHT22;35952;52.524;13.340;2023-12-29T01:22:35;8.90;99.90
50067;DHT22;35952;52.524;13.340;2023-12-29T01:25:01;8.80;99.90
50067;DHT22;35952;52.524;13.340;2023-12-29T01:27:27;8.80;99.90
50067;DHT22;35952;52.524;13.340;2023-12-29T01:29:52;8.90;99.90
50067;DHT22;35952;52.524;13.340;2023-12-29T01:32:19;8.90;99.90
50067;DHT22;35952;52.524;13.340;2023-12-29T01:34:44;8.90;99.90
50067;DHT22;35952;52.524;13.340;2023-12-29T01:37:10;8.90;99.90
50067;DHT22;35952;52.524;13.340;2023-12-29T01:39:35;8.90;99.90
50067;DHT22;35952;52.524;13.340;2023-12-29T01:42:01;8.90;99.90
50067;DHT22;35952;52.524;13.340;2023-12-29T01:44:27;8.90;99.90
50067;DHT22;35952;52.524;13.340;2023-12-29T01:46:58;8.80;99.90
50067;DHT22;35952;52.524;13.340;2023-12-29T01:49:24;8.90;99.90
50067;DHT22;35952;52.524;13.340;2023-12-29T01:51:55;8.80;99.90
50067;DHT22;35952;52.524;13.340;2023-12-29T01:54:21;8.90;99.90
50067;DHT22;35952;52.524;13.340;2023-12-29T01:56:50;8.80;99.90
50067;DHT22;35952;52.524;13.340;2023-12-29T01:59:16;8.80;99.90
50067;DHT22;35952;52.524;13.340;2023-12-29T02:01:42;8.80;99.90
50067;DHT22;35952;52.524;13.340;2023-12-29T02:04:09;8.80;99.90
50067;DHT22;35952;52.524;13.340;2023-12-29T02:06:37;8.80;99.90
50067;DHT22;35952;52.524;13.340;2023-12-29T02:09:04;8.90;99.90
50067;DHT22;35952;52.524;13.340;2023-12-29T02:11:29;8.80;99.90
50067;DHT22;35952;52.524;13.340;2023-12-29T02:13:55;8.80;99.90
50067;DHT22;35952;52.524;13.340;2023-12-29T02:18:52;8.80;99.90
50067;DHT22;35952;52.524;13.340;2023-12-29T02:21:23;8.80;99.90
50067;DHT22;35952;52.524;13.340;2023-12-29T02:23:49;8.80;99.90
50067;DHT22;35952;52.524;13.340;2023-12-29T02:26:15;8.90;99.90
50067;DHT22;35952;52.524;13.340;2023-12-29T02:28:44;8.80;99.90
50067;DHT22;35952;52.524;13.340;2023-12-29T02:31:16;8.90;99.90
50067;DHT22;35952;52.524;13.340;2023-12-29T02:33:43;8.90;99.90
50067;DHT22;35952;52.524;13.340;2023-12-29T02:36:10;8.90;99.90
50067;DHT22;35952;52.524;13.340;2023-12-29T02:38:37;8.90;99.90
50067;DHT22;35952;52.524;13.340;2023-12-29T02:41:03;8.90;99.90
50067;DHT22;35952;52.524;13.340;2023-12-29T02:43:31;8.90;99.90
50067;DHT22;35952;52.524;13.340;2023-12-29T02:45:56;8.90;99.90
50067;DHT22;35952;52.524;13.340;2023-12-29T02:48:22;8.90;99.90
50067;DHT22;35952;52.524;13.340;2023-12-29T02:50:47;8.90;99.90
50067;DHT22;35952;52.524;13.340;2023-12-29T02:53:13;8.90;99.90
50067;DHT22;35952;52.524;13.340;2023-12-29T02:55:38;8.90;99.90
50067;DHT22;35952;52.524;13.340;2023-12-29T02:58:03;8.90;99.90
50067;DHT22;35952;52.524;13.340;2023-12-29T03:00:29;8.90;99.90
50067;DHT22;35952;52.524;13.340;2023-12-29T03:02:54;8.90;99.90
50067;DHT22;35952;52.524;13.340;2023-12-29T03:05:20;8.90;99.90
50067;DHT22;35952;52.524;13.340;2023-12-29T03:07:46;8.90;99.90
50067;DHT22;35952;52.524;13.340;2023-12-29T03:10:11;8.90;99.90
50067;DHT22;35952;52.524;13.340;2023-12-29T03:12:37;8.90;99.90
50067;DHT22;35952;52.524;13.340;2023-12-29T03:15:03;9.00;99.90
50067;DHT22;35952;52.524;13.340;2023-12-29T03:17:28;9.10;99.90
50067;DHT22;35952;52.524;13.340;2023-12-29T03:19:54;9.10;99.90
50067;DHT22;35952;52.524;13.340;2023-12-29T03:22:19;9.00;99.90
50067;DHT22;35952;52.524;13.340;2023-12-29T03:24:46;9.00;99.90
50067;DHT22;35952;52.524;13.340;2023-12-29T03:27:11;9.10;99.90
50067;DHT22;35952;52.524;13.340;2023-12-29T03:29:37;9.10;99.90
50067;DHT22;35952;52.524;13.340;2023-12-29T03:32:03;9.10;99.90
50067;DHT22;35952;52.524;13.340;2023-12-29T03:34:28;9.00;99.90
50067;DHT22;35952;52.524;13.340;2023-12-29T03:36:55;9.10;99.90
50067;DHT22;35952;52.524;13.340;2023-12-29T03:39:20;9.10;99.90
50067;DHT22;35952;52.524;13.340;2023-12-29T03:41:46;9.00;99.90
50067;DHT22;35952;52.524;13.340;2023-12-29T03:44:11;9.10;99.90
50067;DHT22;35952;52.524;13.340;2023-12-29T03:46:37;9.20;99.90
50067;DHT22;35952;52.524;13.340;2023-12-29T03:49:02;9.10;99.90
50067;DHT22;35952;52.524;13.340;2023-12-29T03:51:28;9.10;99.90
50067;DHT22;35952;52.524;13.340;2023-12-29T03:53:54;9.10;99.90
50067;DHT22;35952;52.524;13.340;2023-12-29T03:56:20;9.20;99.90
50067;DHT22;35952;52.524;13.340;2023-12-29T03:58:46;9.20;99.90
50067;DHT22;35952;52.524;13.340;2023-12-29T04:01:15;9.20;99.90
50067;DHT22;35952;52.524;13.340;2023-12-29T04:03:41;9.20;99.90
50067;DHT22;35952;52.524;13.340;2023-12-29T04:06:07;9.20;99.90
50067;DHT22;35952;52.524;13.340;2023-12-29T04:08:34;9.30;99.90
50067;DHT22;35952;52.524;13.340;2023-12-29T04:10:59;9.30;99.90
50067;DHT22;35952;52.524;13.340;2023-12-29T04:13:25;9.20;99.90
50067;DHT22;35952;52.524;13.340;2023-12-29T04:15:51;9.30;99.90
50067;DHT22;35952;52.524;13.340;2023-12-29T04:18:17;9.30;99.90
50067;DHT22;35952;52.524;13.340;2023-12-29T04:20:43;9.30;99.90
50067;DHT22;35952;52.524;13.340;2023-12-29T04:23:08;9.30;99.90
50067;DHT22;35952;52.524;13.340;2023-12-29T04:25:34;9.20;99.90
50067;DHT22;35952;52.524;13.340;2023-12-29T04:28:00;9.30;99.90
50067;DHT22;35952;52.524;13.340;2023-12-29T04:30:25;9.40;99.90
50067;DHT22;35952;52.524;13.340;2023-12-29T04:32:51;9.30;99.90
50067;DHT22;35952;52.524;13.340;2023-12-29T04:35:16;9.40;99.90
50067;DHT22;35952;52.524;13.340;2023-12-29T04:37:45;9.40;99.90
50067;DHT22;35952;52.524;13.340;2023-12-29T04:40:12;9.50;99.90
50067;DHT22;35952;52.524;13.340;2023-12-29T04:42:37;9.40;99.90
50067;DHT22;35952;52.524;13.340;2023-12-29T04:45:04;9.40;99.90
50067;DHT22;35952;52.524;13.340;2023-12-29T04:47:29;9.30;99.90
50067;DHT22;35952;52.524;13.340;2023-12-29T04:49:55;9.20;99.90
50067;DHT22;35952;52.524;13.340;2023-12-29T04:52:21;9.30;99.90
50067;DHT22;35952;52.524;13.340;2023-12-29T04:54:46;9.20;99.90
50067;DHT22;35952;52.524;13.340;2023-12-29T04:57:12;9.20;99.90
50067;DHT22;35952;52.524;13.340;2023-12-29T04:59:37;9.20;99.90
50067;DHT22;35952;52.524;13.340;2023-12-29T05:02:03;9.10;99.90
50067;DHT22;35952;52.524;13.340;2023-12-29T05:04:28;9.20;99.90
50067;DHT22;35952;52.524;13.340;2023-12-29T05:06:54;9.30;99.90
50067;DHT22;35952;52.524;13.340;2023-12-29T05:09:19;9.30;99.90
50067;DHT22;35952;52.524;13.340;2023-12-29T05:11:46;9.40;99.90
50067;DHT22;35952;52.524;13.340;2023-12-29T05:14:11;9.20;99.90
50067;DHT22;35952;52.524;13.340;2023-12-29T05:16:37;9.30;99.90
50067;DHT22;35952;52.524;13.340;2023-12-29T05:19:02;9.30;99.90
50067;DHT22;35952;52.524;13.340;2023-12-29T05:21:28;9.30;99.90
50067;DHT22;35952;52.524;13.340;2023-12-29T05:23:53;9.40;99.90
50067;DHT22;35952;52.524;13.340;2023-12-29T05:26:19;9.40;99.90
50067;DHT22;35952;52.524;13.340;2023-12-29T05:28:44;9.40;99.90
50067;DHT22;35952;52.524;13.340;2023-12-29T05:31:10;9.40;99.90
50067;DHT22;35952;52.524;13.340;2023-12-29T05:33:36;9.40;99.90
50067;DHT22;35952;52.524;13.340;2023-12-29T05:36:10;9.40;99.90
50067;DHT22;35952;52.524;13.340;2023-12-29T05:38:36;9.40;99.90
50067;DHT22;35952;52.524;13.340;2023-12-29T05:41:03;9.50;99.90
50067;DHT22;35952;52.524;13.340;2023-12-29T05:43:30;9.60;99.90
50067;DHT22;35952;52.524;13.340;2023-12-29T05:45:56;9.50;99.90
50067;DHT22;35952;52.524;13.340;2023-12-29T05:48:21;9.60;99.90
50067;DHT22;35952;52.524;13.340;2023-12-29T05:50:47;9.60;99.90
50067;DHT22;35952;52.524;13.340;2023-12-29T05:53:12;9.60;99.90
50067;DHT22;35952;52.524;13.340;2023-12-29T05:55:40;9.60;99.90
50067;DHT22;35952;52.524;13.340;2023-12-29T05:58:06;9.60;99.90
50067;DHT22;35952;52.524;13.340;2023-12-29T06:00:31;9.50;99.90
50067;DHT22;35952;52.524;13.340;2023-12-29T06:02:57;9.50;99.90
50067;DHT22;35952;52.524;13.340;2023-12-29T06:05:22;9.40;99.90
50067;DHT22;35952;52.524;13.340;2023-12-29T06:07:48;9.30;99.90
50067;DHT22;35952;52.524;13.340;2023-12-29T06:10:13;9.50;99.90
50067;DHT22;35952;52.524;13.340;2023-12-29T06:12:39;9.50;99.90
50067;DHT22;35952;52.524;13.340;2023-12-29T06:15:06;9.60;99.90
50067;DHT22;35952;52.524;13.340;2023-12-29T06:17:31;9.60;99.90
50067;DHT22;35952;52.524;13.340;2023-12-29T06:19:57;9.60;99.90
50067;DHT22;35952;52.524;13.340;2023-12-29T06:22:23;9.70;99.90
50067;DHT22;35952;52.524;13.340;2023-12-29T06:24:48;9.80;99.90
50067;DHT22;35952;52.524;13.340;2023-12-29T06:27:14;9.70;99.90
50067;DHT22;35952;52.524;13.340;2023-12-29T06:29:41;9.80;99.90
50067;DHT22;35952;52.524;13.340;2023-12-29T06:32:07;9.80;99.90
50067;DHT22;35952;52.524;13.340;2023-12-29T06:34:33;9.80;99.90
50067;DHT22;35952;52.524;13.340;2023-12-29T06:36:58;9.80;99.90
50067;DHT22;35952;52.524;13.340;2023-12-29T06:39:24;9.90;99.90
50067;DHT22;35952;52.524;13.340;2023-12-29T06:41:49;9.90;99.90
50067;DHT22;35952;52.524;13.340;2023-12-29T06:44:15;9.90;99.90
50067;DHT22;35952;52.524;13.340;2023-12-29T06:46:40;9.90;99.90
50067;DHT22;35952;52.524;13.340;2023-12-29T06:49:08;9.90;99.90
50067;DHT22;35952;52.524;13.340;2023-12-29T06:51:33;10.00;99.90
50067;DHT22;35952;52.524;13.340;2023-12-29T06:54:00;10.00;99.90
50067;DHT22;35952;52.524;13.340;2023-12-29T06:56:25;10.00;99.90
50067;DHT22;35952;52.524;13.340;2023-12-29T06:58:51;9.90;99.90
50067;DHT22;35952;52.524;13.340;2023-12-29T07:01:16;10.00;99.90
50067;DHT22;35952;52.524;13.340;2023-12-29T07:03:43;10.00;99.90
50067;DHT22;35952;52.524;13.340;2023-12-29T07:06:09;10.00;99.90
50067;DHT22;35952;52.524;13.340;2023-12-29T07:08:35;10.10;99.90
50067;DHT22;35952;52.524;13.340;2023-12-29T07:11:01;10.10;99.90
50067;DHT22;35952;52.524;13.340;2023-12-29T07:13:26;10.10;99.90
50067;DHT22;35952;52.524;13.340;2023-12-29T07:15:52;10.10;99.90
50067;DHT22;35952;52.524;13.340;2023-12-29T07:18:17;10.10;99.90
50067;DHT22;35952;52.524;13.340;2023-12-29T07:20:43;10.10;99.90
50067;DHT22;35952;52.524;13.340;2023-12-29T07:23:08;10.10;99.90
50067;DHT22;35952;52.524;13.340;2023-12-29T07:25:34;10.10;99.90
50067;DHT22;35952;52.524;13.340;2023-12-29T07:27:59;10.10;99.90
50067;DHT22;35952;52.524;13.340;2023-12-29T07:30:25;10.20;99.90
50067;DHT22;35952;52.524;13.340;2023-12-29T07:32:51;10.10;99.90
50067;DHT22;35952;52.524;13.340;2023-12-29T07:35:17;10.10;99.90
50067;DHT22;35952;52.524;13.340;2023-12-29T07:37:45;10.10;99.90
50067;DHT22;35952;52.524;13.340;2023-12-29T07:40:11;10.10;99.90
50067;DHT22;35952;52.524;13.340;2023-12-29T07:42:37;10.10;99.90
50067;DHT22;35952;52.524;13.340;2023-12-29T07:45:03;10.20;99.90
50067;DHT22;35952;52.524;13.340;2023-12-29T07:47:28;10.20;99.90
50067;DHT22;35952;52.524;13.340;2023-12-29T07:49:54;10.10;99.90
50067;DHT22;35952;52.524;13.340;2023-12-29T07:52:19;10.10;99.90
50067;DHT22;35952;52.524;13.340;2023-12-29T07:54:45;10.10;99.90
50067;DHT22;35952;52.524;13.340;2023-12-29T07:57:10;10.10;99.90
50067;DHT22;35952;52.524;13.340;2023-12-29T07:59:36;10.10;99.90
50067;DHT22;35952;52.524;13.340;2023-12-29T08:02:01;10.10;99.90
50067;DHT22;35952;52.524;13.340;2023-12-29T08:04:26;10.20;99.90
50067;DHT22;35952;52.524;13.340;2023-12-29T08:06:52;10.30;99.90
50067;DHT22;35952;52.524;13.340;2023-12-29T08:09:17;10.30;99.90
50067;DHT22;35952;52.524;13.340;2023-12-29T08:11:43;10.30;99.90
50067;DHT22;35952;52.524;13.340;2023-12-29T08:14:09;10.40;99.90
50067;DHT22;35952;52.524;13.340;2023-12-29T08:16:38;10.40;99.90
50067;DHT22;35952;52.524;13.340;2023-12-29T08:19:05;10.50;99.90
50067;DHT22;35952;52.524;13.340;2023-12-29T08:21:32;10.50;99.90
50067;DHT22;35952;52.524;13.340;2023-12-29T08:23:57;10.50;99.90
50067;DHT22;35952;52.524;13.340;2023-12-29T08:26:23;10.60;99.90
50067;DHT22;35952;52.524;13.340;2023-12-29T08:28:48;10.60;99.90
50067;DHT22;35952;52.524;13.340;2023-12-29T08:31:15;10.60;99.90
50067;DHT22;35952;52.524;13.340;2023-12-29T08:33:41;10.60;99.90
50067;DHT22;35952;52.524;13.340;2023-12-29T08:36:07;10.60;99.90
50067;DHT22;35952;52.524;13.340;2023-12-29T08:38:32;10.50;99.90
50067;DHT22;35952;52.524;13.340;2023-12-29T08:40:58;10.60;99.90
50067;DHT22;35952;52.524;13.340;2023-12-29T08:43:24;10.60;99.90
50067;DHT22;35952;52.524;13.340;2023-12-29T08:45:50;10.60;99.90
50067;DHT22;35952;52.524;13.340;2023-12-29T08:48:16;10.50;99.90
50067;DHT22;35952;52.524;13.340;2023-12-29T08:50:42;10.50;99.90
50067;DHT22;35952;52.524;13.340;2023-12-29T08:53:08;10.60;99.90
50067;DHT22;35952;52.524;13.340;2023-12-29T08:55:34;10.60;99.90
50067;DHT22;35952;52.524;13.340;2023-12-29T08:57:59;10.60;99.90
50067;DHT22;35952;52.524;13.340;2023-12-29T09:00:25;10.60;99.90
50067;DHT22;35952;52.524;13.340;2023-12-29T09:02:50;10.50;99.90
50067;DHT22;35952;52.524;13.340;2023-12-29T09:05:16;10.50;99.90
50067;DHT22;35952;52.524;13.340;2023-12-29T09:07:42;10.50;99.90
50067;DHT22;35952;52.524;13.340;2023-12-29T09:10:07;10.60;99.90
50067;DHT22;35952;52.524;13.340;2023-12-29T09:12:36;10.70;99.90
50067;DHT22;35952;52.524;13.340;2023-12-29T09:15:02;10.80;99.90
50067;DHT22;35952;52.524;13.340;2023-12-29T09:17:28;10.80;99.90
50067;DHT22;35952;52.524;13.340;2023-12-29T09:19:53;10.80;99.90
50067;DHT22;35952;52.524;13.340;2023-12-29T09:22:20;10.90;99.90
50067;DHT22;35952;52.524;13.340;2023-12-29T09:24:45;10.80;99.90
50067;DHT22;35952;52.524;13.340;2023-12-29T09:27:11;10.90;99.90
50067;DHT22;35952;52.524;13.340;2023-12-29T09:29:37;10.90;99.90
50067;DHT22;35952;52.524;13.340;2023-12-29T09:32:03;10.90;99.90
50067;DHT22;35952;52.524;13.340;2023-12-29T09:34:28;10.80;99.90
50067;DHT22;35952;52.524;13.340;2023-12-29T09:36:54;10.90;99.90
50067;DHT22;35952;52.524;13.340;2023-12-29T09:39:19;11.10;99.90
50067;DHT22;35952;52.524;13.340;2023-12-29T09:41:46;11.10;99.90
50067;DHT22;35952;52.524;13.340;2023-12-29T09:44:15;11.10;99.90
50067;DHT22;35952;52.524;13.340;2023-12-29T09:46:42;11.20;99.90
50067;DHT22;35952;52.524;13.340;2023-12-29T09:49:08;11.30;99.90
50067;DHT22;35952;52.524;13.340;2023-12-29T09:51:35;11.20;99.90
50067;DHT22;35952;52.524;13.340;2023-12-29T09:54:02;11.10;99.90
50067;DHT22;35952;52.524;13.340;2023-12-29T09:56:28;11.20;99.90
50067;DHT22;35952;52.524;13.340;2023-12-29T09:58:54;11.20;99.90
50067;DHT22;35952;52.524;13.340;2023-12-29T10:01:22;11.00;99.90
50067;DHT22;35952;52.524;13.340;2023-12-29T10:03:48;11.00;99.90
50067;DHT22;35952;52.524;13.340;2023-12-29T10:06:20;11.00;99.90
50067;DHT22;35952;52.524;13.340;2023-12-29T10:08:47;11.10;99.90
50067;DHT22;35952;52.524;13.340;2023-12-29T10:11:18;11.30;99.90
50067;DHT22;35952;52.524;13.340;2023-12-29T10:13:45;11.30;99.90
50067;DHT22;35952;52.524;13.340;2023-12-29T10:19:08;11.40;99.90
50067;DHT22;35952;52.524;13.340;2023-12-29T10:22:01;11.40;99.90
50067;DHT22;35952;52.524;13.340;2023-12-29T10:24:29;11.50;99.90
50067;DHT22;35952;52.524;13.340;2023-12-29T10:26:55;11.60;99.90
50067;DHT22;35952;52.524;13.340;2023-12-29T10:29:21;11.50;99.90
50067;DHT22;35952;52.524;13.340;2023-12-29T10:31:47;11.60;99.90
50067;DHT22;35952;52.524;13.340;2023-12-29T10:34:23;11.60;99.90
50067;DHT22;35952;52.524;13.340;2023-12-29T10:36:56;11.60;99.90
50067;DHT22;35952;52.524;13.340;2023-12-29T10:39:22;11.70;99.90
50067;DHT22;35952;52.524;13.340;2023-12-29T10:41:48;11.70;99.90
50067;DHT22;35952;52.524;13.340;2023-12-29T10:44:13;11.70;99.90
50067;DHT22;35952;52.524;13.340;2023-12-29T10:46:39;11.80;99.90
50067;DHT22;35952;52.524;13.340;2023-12-29T10:49:08;11.70;99.90
50067;DHT22;35952;52.524;13.340;2023-12-29T10:51:34;11.80;99.90
50067;DHT22;35952;52.524;13.340;2023-12-29T10:54:00;11.80;99.90
50067;DHT22;35952;52.524;13.340;2023-12-29T10:56:26;11.70;99.90
50067;DHT22;35952;52.524;13.340;2023-12-29T10:59:05;11.80;99.90
50067;DHT22;35952;52.524;13.340;2023-12-29T11:01:33;11.80;99.90
50067;DHT22;35952;52.524;13.340;2023-12-29T11:06:26;11.90;99.90
50067;DHT22;35952;52.524;13.340;2023-12-29T11:08:53;11.90;99.90
50067;DHT22;35952;52.524;13.340;2023-12-29T11:11:19;11.90;99.90
50067;DHT22;35952;52.524;13.340;2023-12-29T11:13:46;11.90;99.90
50067;DHT22;35952;52.524;13.340;2023-12-29T11:16:12;12.00;99.90
50067;DHT22;35952;52.524;13.340;2023-12-29T11:18:38;11.90;99.90
50067;DHT22;35952;52.524;13.340;2023-12-29T11:21:06;11.90;99.90
50067;DHT22;35952;52.524;13.340;2023-12-29T11:23:33;11.90;99.90
50067;DHT22;35952;52.524;13.340;2023-12-29T11:25:59;11.80;99.90
50067;DHT22;35952;52.524;13.340;2023-12-29T11:28:25;11.80;99.90
50067;DHT22;35952;52.524;13.340;2023-12-29T11:30:51;11.80;99.90
50067;DHT22;35952;52.524;13.340;2023-12-29T11:33:24;11.80;99.90
50067;DHT22;35952;52.524;13.340;2023-12-29T11:41:25;11.90;99.90
50067;DHT22;35952;52.524;13.340;2023-12-29T11:44:01;11.90;99.90
50067;DHT22;35952;52.524;13.340;2023-12-29T11:46:39;11.80;99.90
50067;DHT22;35952;52.524;13.340;2023-12-29T11:49:08;11.70;99.90
50067;DHT22;35952;52.524;13.340;2023-12-29T11:51:40;11.70;99.90
50067;DHT22;35952;52.524;13.340;2023-12-29T11:54:06;11.80;99.90
50067;DHT22;35952;52.524;13.340;2023-12-29T11:56:38;11.90;99.90
50067;DHT22;35952;52.524;13.340;2023-12-29T11:59:21;11.80;99.90
50067;DHT22;35952;52.524;13.340;2023-12-29T12:01:55;11.80;99.90
50067;DHT22;35952;52.524;13.340;2023-12-29T12:04:34;11.70;99.90
50067;DHT22;35952;52.524;13.340;2023-12-29T12:07:04;11.70;99.90
50067;DHT22;35952;52.524;13.340;2023-12-29T12:09:30;11.70;99.90
50067;DHT22;35952;52.524;13.340;2023-12-29T12:11:56;11.80;99.90
50067;DHT22;35952;52.524;13.340;2023-12-29T12:14:53;11.80;99.90
50067;DHT22;35952;52.524;13.340;2023-12-29T12:17:34;11.70;99.90
50067;DHT22;35952;52.524;13.340;2023-12-29T12:20:08;11.70;99.90
50067;DHT22;35952;52.524;13.340;2023-12-29T12:22:35;11.70;99.90
50067;DHT22;35952;52.524;13.340;2023-12-29T12:25:02;11.50;99.90
50067;DHT22;35952;52.524;13.340;2023-12-29T12:27:28;11.60;99.90
50067;DHT22;35952;52.524;13.340;2023-12-29T12:29:55;11.60;99.90
50067;DHT22;35952;52.524;13.340;2023-12-29T12:32:23;11.50;99.90
50067;DHT22;35952;52.524;13.340;2023-12-29T12:34:48;11.50;99.90
50067;DHT22;35952;52.524;13.340;2023-12-29T12:37:22;11.40;99.90
50067;DHT22;35952;52.524;13.340;2023-12-29T12:39:47;11.50;99.90
50067;DHT22;35952;52.524;13.340;2023-12-29T12:42:14;11.40;99.90
50067;DHT22;35952;52.524;13.340;2023-12-29T12:44:41;11.40;99.90
50067;DHT22;35952;52.524;13.340;2023-12-29T12:47:12;11.40;99.90
50067;DHT22;35952;52.524;13.340;2023-12-29T12:49:39;11.20;99.90
50067;DHT22;35952;52.524;13.340;2023-12-29T12:52:05;11.10;99.90
50067;DHT22;35952;52.524;13.340;2023-12-29T12:54:31;11.10;99.90
50067;DHT22;35952;52.524;13.340;2023-12-29T12:56:57;11.00;99.90
50067;DHT22;35952;52.524;13.340;2023-12-29T12:59:22;11.00;99.90
50067;DHT22;35952;52.524;13.340;2023-12-29T13:01:48;11.00;99.90
50067;DHT22;35952;52.524;13.340;2023-12-29T13:04:14;10.90;99.90
50067;DHT22;35952;52.524;13.340;2023-12-29T13:06:40;10.90;99.90
50067;DHT22;35952;52.524;13.340;2023-12-29T13:09:07;10.80;99.90
50067;DHT22;35952;52.524;13.340;2023-12-29T13:11:37;10.80;99.90
50067;DHT22;35952;52.524;13.340;2023-12-29T13:14:03;10.80;99.90
50067;DHT22;35952;52.524;13.340;2023-12-29T13:16:35;10.80;99.90
50067;DHT22;35952;52.524;13.340;2023-12-29T13:19:23;10.80;99.90
50067;DHT22;35952;52.524;13.340;2023-12-29T13:21:54;10.90;99.90
50067;DHT22;35952;52.524;13.340;2023-12-29T13:24:20;10.90;99.90
50067;DHT22;35952;52.524;13.340;2023-12-29T13:26:47;10.90;99.90
50067;DHT22;35952;52.524;13.340;2023-12-29T13:29:18;10.90;99.90
50067;DHT22;35952;52.524;13.340;2023-12-29T13:31:46;11.00;99.90
50067;DHT22;35952;52.524;13.340;2023-12-29T13:34:33;10.80;99.90
50067;DHT22;35952;52.524;13.340;2023-12-29T13:37:09;10.90;99.90
50067;DHT22;35952;52.524;13.340;2023-12-29T13:39:43;11.00;99.90
50067;DHT22;35952;52.524;13.340;2023-12-29T13:42:10;11.10;99.90
50067;DHT22;35952;52.524;13.340;2023-12-29T13:44:40;11.20;99.90
50067;DHT22;35952;52.524;13.340;2023-12-29T13:47:06;11.00;99.90
50067;DHT22;35952;52.524;13.340;2023-12-29T13:49:32;11.10;99.90
50067;DHT22;35952;52.524;13.340;2023-12-29T13:52:03;11.10;99.90
50067;DHT22;35952;52.524;13.340;2023-12-29T13:54:29;11.00;99.90
50067;DHT22;35952;52.524;13.340;2023-12-29T13:56:55;11.10;99.90
50067;DHT22;35952;52.524;13.340;2023-12-29T13:59:30;11.10;99.90
50067;DHT22;35952;52.524;13.340;2023-12-29T14:02:03;11.10;99.90
50067;DHT22;35952;52.524;13.340;2023-12-29T14:04:40;11.20;99.90
50067;DHT22;35952;52.524;13.340;2023-12-29T14:07:07;11.20;99.90
50067;DHT22;35952;52.524;13.340;2023-12-29T14:09:34;11.10;99.90
50067;DHT22;35952;52.524;13.340;2023-12-29T14:11:59;11.20;99.90
50067;DHT22;35952;52.524;13.340;2023-12-29T14:14:25;11.30;99.90
50067;DHT22;35952;52.524;13.340;2023-12-29T14:16:52;11.10;99.90
50067;DHT22;35952;52.524;13.340;2023-12-29T14:19:18;11.30;99.90
50067;DHT22;35952;52.524;13.340;2023-12-29T14:21:45;11.20;99.90
50067;DHT22;35952;52.524;13.340;2023-12-29T14:24:13;11.30;99.90
50067;DHT22;35952;52.524;13.340;2023-12-29T14:29:11;11.30;99.90
50067;DHT22;35952;52.524;13.340;2023-12-29T14:31:44;11.20;99.90
50067;DHT22;35952;52.524;13.340;2023-12-29T14:34:10;11.30;99.90
50067;DHT22;35952;52.524;13.340;2023-12-29T14:36:39;11.30;99.90
50067;DHT22;35952;52.524;13.340;2023-12-29T14:39:05;11.30;99.90
50067;DHT22;35952;52.524;13.340;2023-12-29T14:41:31;11.30;99.90
50067;DHT22;35952;52.524;13.340;2023-12-29T14:43:57;11.30;99.90
50067;DHT22;35952;52.524;13.340;2023-12-29T14:46:23;11.30;99.90
50067;DHT22;35952;52.524;13.340;2023-12-29T14:48:49;11.30;99.90
50067;DHT22;35952;52.524;13.340;2023-12-29T14:51:15;11.30;99.90
50067;DHT22;35952;52.524;13.340;2023-12-29T14:53:46;11.30;99.90
50067;DHT22;35952;52.524;13.340;2023-12-29T14:56:13;11.30;99.90
50067;DHT22;35952;52.524;13.340;2023-12-29T14:58:39;11.30;99.90
50067;DHT22;35952;52.524;13.340;2023-12-29T15:01:05;11.30;99.90
50067;DHT22;35952;52.524;13.340;2023-12-29T15:03:31;11.30;99.90
50067;DHT22;35952;52.524;13.340;2023-12-29T15:05:57;11.30;99.90
50067;DHT22;35952;52.524;13.340;2023-12-29T15:08:23;11.20;99.90
50067;DHT22;35952;52.524;13.340;2023-12-29T15:10:49;11.20;99.90
50067;DHT22;35952;52.524;13.340;2023-12-29T15:13:14;11.10;99.90
50067;DHT22;35952;52.524;13.340;2023-12-29T15:15:41;11.10;99.90
50067;DHT22;35952;52.524;13.340;2023-12-29T15:18:07;11.00;99.90
50067;DHT22;35952;52.524;13.340;2023-12-29T15:20:32;11.00;99.90
50067;DHT22;35952;52.524;13.340;2023-12-29T15:22:58;11.00;99.90
50067;DHT22;35952;52.524;13.340;2023-12-29T15:25:24;11.00;99.90
50067;DHT22;35952;52.524;13.340;2023-12-29T15:27:51;11.00;99.90
50067;DHT22;35952;52.524;13.340;2023-12-29T15:30:18;11.10;99.90
50067;DHT22;35952;52.524;13.340;2023-12-29T15:32:44;11.00;99.90
50067;DHT22;35952;52.524;13.340;2023-12-29T15:35:09;11.00;99.90
50067;DHT22;35952;52.524;13.340;2023-12-29T15:37:35;11.00;99.90